sensor_id;sensor_type;location;lat;lon;timestamp;P1;durP1;ratioP1;P2;durP2;ratioP2
22648;SDS011;11491;41.942;24.220;2023-08-12T00:01:21;6.55;;;5.80;;
22648;SDS011;11491;41.942;24.220;2023-08-12T00:03:50;8.38;;;6.05;;
22648;SDS011;11491;41.942;24.220;2023-08-12T00:06:17;6.68;;;5.45;;
22648;SDS011;11491;41.942;24.220;2023-08-12T00:08:44;8.00;;;5.68;;
22648;SDS011;11491;41.942;24.220;2023-08-12T00:11:12;7.70;;;5.90;;
22648;SDS011;11491;41.942;24.220;2023-08-12T00:13:40;6.65;;;5.75;;
22648;SDS011;11491;41.942;24.220;2023-08-12T00:16:07;6.80;;;5.68;;
22648;SDS011;11491;41.942;24.220;2023-08-12T00:18:34;6.35;;;5.68;;
22648;SDS011;11491;41.942;24.220;2023-08-12T00:21:06;5.90;;;5.15;;
22648;SDS011;11491;41.942;24.220;2023-08-12T00:23:39;7.10;;;5.07;;
22648;SDS011;11491;41.942;24.220;2023-08-12T00:26:08;5.85;;;5.18;;
22648;SDS011;11491;41.942;24.220;2023-08-12T00:28:35;8.20;;;5.28;;
22648;SDS011;11491;41.942;24.220;2023-08-12T00:31:04;7.15;;;5.72;;
22648;SDS011;11491;41.942;24.220;2023-08-12T00:33:34;7.30;;;5.57;;
22648;SDS011;11491;41.942;24.220;2023-08-12T00:36:01;7.28;;;5.28;;
22648;SDS011;11491;41.942;24.220;2023-08-12T00:38:28;7.13;;;5.30;;
22648;SDS011;11491;41.942;24.220;2023-08-12T00:40:56;9.85;;;5.75;;
22648;SDS011;11491;41.942;24.220;2023-08-12T00:43:23;7.22;;;5.63;;
22648;SDS011;11491;41.942;24.220;2023-08-12T00:45:53;6.18;;;5.57;;
22648;SDS011;11491;41.942;24.220;2023-08-12T00:48:26;7.35;;;5.50;;
22648;SDS011;11491;41.942;24.220;2023-08-12T00:50:54;6.07;;;5.40;;
22648;SDS011;11491;41.942;24.220;2023-08-12T00:53:21;7.47;;;5.18;;
22648;SDS011;11491;41.942;24.220;2023-08-12T00:55:48;7.22;;;5.43;;
22648;SDS011;11491;41.942;24.220;2023-08-12T00:58:18;6.18;;;5.57;;
22648;SDS011;11491;41.942;24.220;2023-08-12T01:00:59;11.00;;;5.80;;
22648;SDS011;11491;41.942;24.220;2023-08-12T01:03:33;9.48;;;5.57;;
22648;SDS011;11491;41.942;24.220;2023-08-12T01:08:46;6.47;;;5.43;;
22648;SDS011;11491;41.942;24.220;2023-08-12T01:11:14;7.18;;;5.40;;
22648;SDS011;11491;41.942;24.220;2023-08-12T01:16:17;6.72;;;5.50;;
22648;SDS011;11491;41.942;24.220;2023-08-12T01:18:49;10.48;;;6.10;;
22648;SDS011;11491;41.942;24.220;2023-08-12T01:21:18;6.80;;;5.82;;
22648;SDS011;11491;41.942;24.220;2023-08-12T01:24:15;5.80;;;5.20;;
22648;SDS011;11491;41.942;24.220;2023-08-12T01:26:51;6.68;;;5.45;;
22648;SDS011;11491;41.942;24.220;2023-08-12T01:29:23;8.02;;;5.43;;
22648;SDS011;11491;41.942;24.220;2023-08-12T01:31:51;6.90;;;5.53;;
22648;SDS011;11491;41.942;24.220;2023-08-12T01:34:25;7.10;;;5.57;;
22648;SDS011;11491;41.942;24.220;2023-08-12T01:37:00;6.13;;;5.22;;
22648;SDS011;11491;41.942;24.220;2023-08-12T01:42:51;6.50;;;5.47;;
22648;SDS011;11491;41.942;24.220;2023-08-12T01:48:11;6.13;;;5.53;;
22648;SDS011;11491;41.942;24.220;2023-08-12T01:50:38;8.48;;;5.65;;
22648;SDS011;11491;41.942;24.220;2023-08-12T01:53:13;8.95;;;5.63;;
22648;SDS011;11491;41.942;24.220;2023-08-12T01:55:45;7.60;;;6.05;;
22648;SDS011;11491;41.942;24.220;2023-08-12T01:58:14;6.45;;;4.97;;
22648;SDS011;11491;41.942;24.220;2023-08-12T02:00:41;7.28;;;5.85;;
22648;SDS011;11491;41.942;24.220;2023-08-12T02:03:08;6.55;;;5.95;;
22648;SDS011;11491;41.942;24.220;2023-08-12T02:05:35;6.78;;;5.22;;
22648;SDS011;11491;41.942;24.220;2023-08-12T02:08:02;6.38;;;5.43;;
22648;SDS011;11491;41.942;24.220;2023-08-12T02:10:29;5.68;;;5.10;;
22648;SDS011;11491;41.942;24.220;2023-08-12T02:12:56;7.30;;;5.05;;
22648;SDS011;11491;41.942;24.220;2023-08-12T02:15:25;6.38;;;5.65;;
22648;SDS011;11491;41.942;24.220;2023-08-12T02:17:51;6.05;;;5.40;;
22648;SDS011;11491;41.942;24.220;2023-08-12T02:20:19;9.13;;;5.00;;
22648;SDS011;11491;41.942;24.220;2023-08-12T02:22:51;5.35;;;4.85;;
22648;SDS011;11491;41.942;24.220;2023-08-12T02:25:19;5.43;;;4.93;;
22648;SDS011;11491;41.942;24.220;2023-08-12T02:28:08;5.60;;;4.95;;
22648;SDS011;11491;41.942;24.220;2023-08-12T02:30:51;5.82;;;5.22;;
22648;SDS011;11491;41.942;24.220;2023-08-12T02:33:18;5.40;;;4.90;;
22648;SDS011;11491;41.942;24.220;2023-08-12T02:35:45;6.45;;;5.85;;
22648;SDS011;11491;41.942;24.220;2023-08-12T02:38:12;8.02;;;5.72;;
22648;SDS011;11491;41.942;24.220;2023-08-12T02:40:39;9.98;;;5.70;;
22648;SDS011;11491;41.942;24.220;2023-08-12T02:43:06;6.63;;;5.95;;
22648;SDS011;11491;41.942;24.220;2023-08-12T02:45:35;7.95;;;5.53;;
22648;SDS011;11491;41.942;24.220;2023-08-12T03:00:41;7.70;;;5.60;;
22648;SDS011;11491;41.942;24.220;2023-08-12T03:03:09;9.30;;;5.65;;
22648;SDS011;11491;41.942;24.220;2023-08-12T03:05:35;7.38;;;5.35;;
22648;SDS011;11491;41.942;24.220;2023-08-12T03:08:02;6.25;;;5.53;;
22648;SDS011;11491;41.942;24.220;2023-08-12T03:10:30;6.15;;;5.50;;
22648;SDS011;11491;41.942;24.220;2023-08-12T03:12:57;6.60;;;5.97;;
22648;SDS011;11491;41.942;24.220;2023-08-12T03:15:24;7.93;;;6.05;;
22648;SDS011;11491;41.942;24.220;2023-08-12T03:20:45;6.72;;;5.25;;
22648;SDS011;11491;41.942;24.220;2023-08-12T03:44:18;6.00;;;5.40;;
22648;SDS011;11491;41.942;24.220;2023-08-12T03:58:48;8.40;;;5.95;;
22648;SDS011;11491;41.942;24.220;2023-08-12T04:10:23;6.40;;;5.72;;
22648;SDS011;11491;41.942;24.220;2023-08-12T04:18:18;7.00;;;6.30;;
22648;SDS011;11491;41.942;24.220;2023-08-12T04:20:48;7.55;;;6.85;;
22648;SDS011;11491;41.942;24.220;2023-08-12T04:23:31;7.82;;;6.35;;
22648;SDS011;11491;41.942;24.220;2023-08-12T04:28:34;12.45;;;6.97;;
22648;SDS011;11491;41.942;24.220;2023-08-12T04:31:05;10.77;;;9.77;;
22648;SDS011;11491;41.942;24.220;2023-08-12T04:33:38;10.23;;;9.23;;
22648;SDS011;11491;41.942;24.220;2023-08-12T04:36:05;7.90;;;7.13;;
22648;SDS011;11491;41.942;24.220;2023-08-12T04:38:33;7.95;;;7.15;;
22648;SDS011;11491;41.942;24.220;2023-08-12T04:41:04;8.75;;;7.20;;
22648;SDS011;11491;41.942;24.220;2023-08-12T04:52:03;9.93;;;8.30;;
22648;SDS011;11491;41.942;24.220;2023-08-12T04:54:31;11.82;;;10.57;;
22648;SDS011;11491;41.942;24.220;2023-08-12T04:56:58;9.50;;;8.45;;
22648;SDS011;11491;41.942;24.220;2023-08-12T04:59:25;9.20;;;8.10;;
22648;SDS011;11491;41.942;24.220;2023-08-12T05:01:52;12.30;;;11.02;;
22648;SDS011;11491;41.942;24.220;2023-08-12T05:04:19;14.27;;;12.88;;
22648;SDS011;11491;41.942;24.220;2023-08-12T05:06:47;14.43;;;12.63;;
22648;SDS011;11491;41.942;24.220;2023-08-12T05:09:14;14.95;;;13.02;;
22648;SDS011;11491;41.942;24.220;2023-08-12T05:11:41;15.82;;;14.32;;
22648;SDS011;11491;41.942;24.220;2023-08-12T05:14:07;16.55;;;13.77;;
22648;SDS011;11491;41.942;24.220;2023-08-12T05:16:35;15.43;;;13.93;;
22648;SDS011;11491;41.942;24.220;2023-08-12T05:19:02;13.35;;;11.38;;
22648;SDS011;11491;41.942;24.220;2023-08-12T05:21:28;12.35;;;10.43;;
22648;SDS011;11491;41.942;24.220;2023-08-12T05:23:59;14.98;;;10.50;;
22648;SDS011;11491;41.942;24.220;2023-08-12T05:26:26;10.65;;;9.63;;
22648;SDS011;11491;41.942;24.220;2023-08-12T05:37:22;8.93;;;8.02;;
22648;SDS011;11491;41.942;24.220;2023-08-12T05:55:24;9.70;;;5.50;;
22648;SDS011;11491;41.942;24.220;2023-08-12T05:58:04;8.43;;;6.00;;
22648;SDS011;11491;41.942;24.220;2023-08-12T06:00:59;7.68;;;5.57;;
22648;SDS011;11491;41.942;24.220;2023-08-12T06:03:32;5.68;;;4.85;;
22648;SDS011;11491;41.942;24.220;2023-08-12T06:05:59;8.07;;;5.40;;
22648;SDS011;11491;41.942;24.220;2023-08-12T06:08:28;5.90;;;4.60;;
22648;SDS011;11491;41.942;24.220;2023-08-12T06:11:05;6.07;;;5.00;;
22648;SDS011;11491;41.942;24.220;2023-08-12T06:13:32;7.45;;;4.75;;
22648;SDS011;11491;41.942;24.220;2023-08-12T06:15:59;5.28;;;4.35;;
22648;SDS011;11491;41.942;24.220;2023-08-12T06:18:26;6.47;;;3.63;;
22648;SDS011;11491;41.942;24.220;2023-08-12T06:20:53;6.20;;;4.10;;
22648;SDS011;11491;41.942;24.220;2023-08-12T06:23:20;3.50;;;3.20;;
22648;SDS011;11491;41.942;24.220;2023-08-12T06:25:47;4.20;;;3.30;;
22648;SDS011;11491;41.942;24.220;2023-08-12T06:28:15;5.05;;;3.40;;
22648;SDS011;11491;41.942;24.220;2023-08-12T06:30:44;6.40;;;3.90;;
22648;SDS011;11491;41.942;24.220;2023-08-12T06:33:11;5.22;;;3.15;;
22648;SDS011;11491;41.942;24.220;2023-08-12T06:35:38;3.75;;;3.42;;
22648;SDS011;11491;41.942;24.220;2023-08-12T06:38:05;4.03;;;3.05;;
22648;SDS011;11491;41.942;24.220;2023-08-12T06:40:31;4.72;;;3.28;;
22648;SDS011;11491;41.942;24.220;2023-08-12T06:42:58;4.82;;;3.13;;
22648;SDS011;11491;41.942;24.220;2023-08-12T06:45:27;4.28;;;2.92;;
22648;SDS011;11491;41.942;24.220;2023-08-12T06:47:54;3.80;;;2.83;;
22648;SDS011;11491;41.942;24.220;2023-08-12T06:50:20;6.35;;;3.17;;
22648;SDS011;11491;41.942;24.220;2023-08-12T06:52:47;5.40;;;3.10;;
22648;SDS011;11491;41.942;24.220;2023-08-12T06:55:14;4.10;;;2.97;;
22648;SDS011;11491;41.942;24.220;2023-08-12T06:57:41;3.00;;;2.70;;
22648;SDS011;11491;41.942;24.220;2023-08-12T07:00:08;6.55;;;2.80;;
22648;SDS011;11491;41.942;24.220;2023-08-12T07:02:36;3.15;;;2.80;;
22648;SDS011;11491;41.942;24.220;2023-08-12T07:05:05;3.42;;;2.90;;
22648;SDS011;11491;41.942;24.220;2023-08-12T07:07:32;3.63;;;2.75;;
22648;SDS011;11491;41.942;24.220;2023-08-12T07:09:59;3.95;;;2.60;;
22648;SDS011;11491;41.942;24.220;2023-08-12T07:12:26;3.28;;;2.72;;
22648;SDS011;11491;41.942;24.220;2023-08-12T07:14:52;4.60;;;2.75;;
22648;SDS011;11491;41.942;24.220;2023-08-12T07:17:19;4.03;;;2.92;;
22648;SDS011;11491;41.942;24.220;2023-08-12T07:19:48;6.63;;;3.42;;
22648;SDS011;11491;41.942;24.220;2023-08-12T07:22:15;3.03;;;2.72;;
22648;SDS011;11491;41.942;24.220;2023-08-12T07:24:44;3.55;;;3.00;;
22648;SDS011;11491;41.942;24.220;2023-08-12T07:27:11;5.20;;;2.67;;
22648;SDS011;11491;41.942;24.220;2023-08-12T07:29:38;5.10;;;2.80;;
22648;SDS011;11491;41.942;24.220;2023-08-12T07:32:05;3.20;;;2.70;;
22648;SDS011;11491;41.942;24.220;2023-08-12T07:34:31;3.20;;;2.90;;
22648;SDS011;11491;41.942;24.220;2023-08-12T07:37:00;4.90;;;2.88;;
22648;SDS011;11491;41.942;24.220;2023-08-12T07:39:26;3.33;;;3.03;;
22648;SDS011;11491;41.942;24.220;2023-08-12T07:41:53;3.92;;;2.53;;
22648;SDS011;11491;41.942;24.220;2023-08-12T07:44:20;3.45;;;2.85;;
22648;SDS011;11491;41.942;24.220;2023-08-12T07:46:46;5.07;;;2.83;;
22648;SDS011;11491;41.942;24.220;2023-08-12T07:49:14;3.20;;;2.90;;
22648;SDS011;11491;41.942;24.220;2023-08-12T07:51:41;3.65;;;2.95;;
22648;SDS011;11491;41.942;24.220;2023-08-12T07:54:10;3.33;;;3.03;;
22648;SDS011;11491;41.942;24.220;2023-08-12T07:56:37;2.92;;;2.63;;
22648;SDS011;11491;41.942;24.220;2023-08-12T07:59:04;3.75;;;2.47;;
22648;SDS011;11491;41.942;24.220;2023-08-12T08:01:30;3.88;;;2.45;;
22648;SDS011;11491;41.942;24.220;2023-08-12T08:03:57;4.22;;;2.47;;
22648;SDS011;11491;41.942;24.220;2023-08-12T08:06:24;2.63;;;2.35;;
22648;SDS011;11491;41.942;24.220;2023-08-12T08:08:51;5.22;;;3.15;;
22648;SDS011;11491;41.942;24.220;2023-08-12T08:11:19;3.67;;;2.80;;
22648;SDS011;11491;41.942;24.220;2023-08-12T08:13:45;6.85;;;4.18;;
22648;SDS011;11491;41.942;24.220;2023-08-12T08:16:12;4.05;;;2.42;;
22648;SDS011;11491;41.942;24.220;2023-08-12T08:18:39;4.80;;;2.38;;
22648;SDS011;11491;41.942;24.220;2023-08-12T08:21:05;2.80;;;2.42;;
22648;SDS011;11491;41.942;24.220;2023-08-12T08:23:34;4.88;;;2.75;;
22648;SDS011;11491;41.942;24.220;2023-08-12T08:26:00;2.58;;;2.10;;
22648;SDS011;11491;41.942;24.220;2023-08-12T08:28:29;4.20;;;2.60;;
22648;SDS011;11491;41.942;24.220;2023-08-12T08:30:55;3.67;;;2.53;;
22648;SDS011;11491;41.942;24.220;2023-08-12T08:33:22;3.40;;;3.05;;
22648;SDS011;11491;41.942;24.220;2023-08-12T08:35:49;4.53;;;3.10;;
22648;SDS011;11491;41.942;24.220;2023-08-12T08:38:16;3.70;;;2.35;;
22648;SDS011;11491;41.942;24.220;2023-08-12T08:40:42;7.47;;;2.75;;
22648;SDS011;11491;41.942;24.220;2023-08-12T08:43:09;3.58;;;2.22;;
22648;SDS011;11491;41.942;24.220;2023-08-12T08:45:40;3.78;;;2.38;;
22648;SDS011;11491;41.942;24.220;2023-08-12T08:48:09;2.40;;;2.20;;
22648;SDS011;11491;41.942;24.220;2023-08-12T08:50:38;3.03;;;2.17;;
22648;SDS011;11491;41.942;24.220;2023-08-12T08:53:07;6.10;;;2.70;;
22648;SDS011;11491;41.942;24.220;2023-08-12T08:55:34;2.30;;;2.10;;
22648;SDS011;11491;41.942;24.220;2023-08-12T08:58:01;2.60;;;2.40;;
22648;SDS011;11491;41.942;24.220;2023-08-12T09:00:28;2.72;;;2.30;;
22648;SDS011;11491;41.942;24.220;2023-08-12T09:02:57;2.63;;;2.40;;
22648;SDS011;11491;41.942;24.220;2023-08-12T09:05:24;2.85;;;2.50;;
22648;SDS011;11491;41.942;24.220;2023-08-12T09:07:53;2.85;;;2.63;;
22648;SDS011;11491;41.942;24.220;2023-08-12T09:10:20;2.83;;;2.53;;
22648;SDS011;11491;41.942;24.220;2023-08-12T09:12:50;5.55;;;2.50;;
22648;SDS011;11491;41.942;24.220;2023-08-12T09:15:18;3.42;;;2.63;;
22648;SDS011;11491;41.942;24.220;2023-08-12T09:17:45;4.63;;;2.45;;
22648;SDS011;11491;41.942;24.220;2023-08-12T09:20:13;4.18;;;2.47;;
22648;SDS011;11491;41.942;24.220;2023-08-12T09:22:41;2.45;;;2.25;;
22648;SDS011;11491;41.942;24.220;2023-08-12T09:25:08;3.05;;;2.60;;
22648;SDS011;11491;41.942;24.220;2023-08-12T09:27:36;2.90;;;2.50;;
22648;SDS011;11491;41.942;24.220;2023-08-12T09:30:03;3.72;;;2.78;;
22648;SDS011;11491;41.942;24.220;2023-08-12T09:32:31;3.80;;;2.30;;
22648;SDS011;11491;41.942;24.220;2023-08-12T09:34:59;4.35;;;3.08;;
22648;SDS011;11491;41.942;24.220;2023-08-12T09:37:29;3.67;;;2.58;;
22648;SDS011;11491;41.942;24.220;2023-08-12T09:39:57;5.00;;;3.00;;
22648;SDS011;11491;41.942;24.220;2023-08-12T09:42:24;5.00;;;3.08;;
22648;SDS011;11491;41.942;24.220;2023-08-12T09:44:51;3.20;;;2.40;;
22648;SDS011;11491;41.942;24.220;2023-08-12T09:47:17;5.07;;;2.35;;
22648;SDS011;11491;41.942;24.220;2023-08-12T09:49:44;4.97;;;2.67;;
22648;SDS011;11491;41.942;24.220;2023-08-12T09:52:11;17.55;;;4.43;;
22648;SDS011;11491;41.942;24.220;2023-08-12T09:54:39;21.02;;;9.63;;
22648;SDS011;11491;41.942;24.220;2023-08-12T09:57:08;14.63;;;6.97;;
22648;SDS011;11491;41.942;24.220;2023-08-12T09:59:37;5.57;;;4.35;;
22648;SDS011;11491;41.942;24.220;2023-08-12T10:02:05;4.88;;;3.47;;
22648;SDS011;11491;41.942;24.220;2023-08-12T10:04:35;3.40;;;2.90;;
22648;SDS011;11491;41.942;24.220;2023-08-12T10:07:06;6.72;;;4.78;;
22648;SDS011;11491;41.942;24.220;2023-08-12T10:09:33;5.07;;;2.88;;
22648;SDS011;11491;41.942;24.220;2023-08-12T10:12:04;15.35;;;8.65;;
22648;SDS011;11491;41.942;24.220;2023-08-12T10:14:32;3.10;;;2.53;;
22648;SDS011;11491;41.942;24.220;2023-08-12T10:17:00;8.20;;;3.88;;
22648;SDS011;11491;41.942;24.220;2023-08-12T10:19:27;4.28;;;3.35;;
22648;SDS011;11491;41.942;24.220;2023-08-12T10:21:55;4.00;;;2.60;;
22648;SDS011;11491;41.942;24.220;2023-08-12T10:24:23;2.83;;;2.20;;
22648;SDS011;11491;41.942;24.220;2023-08-12T10:26:51;5.93;;;2.42;;
22648;SDS011;11491;41.942;24.220;2023-08-12T10:29:20;3.80;;;2.58;;
22648;SDS011;11491;41.942;24.220;2023-08-12T10:31:48;3.45;;;2.55;;
22648;SDS011;11491;41.942;24.220;2023-08-12T10:34:19;2.88;;;2.13;;
22648;SDS011;11491;41.942;24.220;2023-08-12T10:36:47;4.03;;;2.30;;
22648;SDS011;11491;41.942;24.220;2023-08-12T10:39:14;5.55;;;4.93;;
22648;SDS011;11491;41.942;24.220;2023-08-12T10:41:49;3.20;;;2.22;;
22648;SDS011;11491;41.942;24.220;2023-08-12T10:44:17;4.45;;;3.67;;
22648;SDS011;11491;41.942;24.220;2023-08-12T10:46:51;3.05;;;2.72;;
22648;SDS011;11491;41.942;24.220;2023-08-12T10:49:19;3.75;;;1.85;;
22648;SDS011;11491;41.942;24.220;2023-08-12T10:51:47;4.90;;;1.98;;
22648;SDS011;11491;41.942;24.220;2023-08-12T10:54:15;2.22;;;2.03;;
22648;SDS011;11491;41.942;24.220;2023-08-12T10:59:50;3.92;;;2.35;;
22648;SDS011;11491;41.942;24.220;2023-08-12T11:02:19;9.55;;;8.60;;
22648;SDS011;11491;41.942;24.220;2023-08-12T11:04:48;7.90;;;5.45;;
22648;SDS011;11491;41.942;24.220;2023-08-12T11:07:17;8.35;;;6.70;;
22648;SDS011;11491;41.942;24.220;2023-08-12T11:09:45;32.38;;;29.45;;
22648;SDS011;11491;41.942;24.220;2023-08-12T11:12:16;7.85;;;6.72;;
22648;SDS011;11491;41.942;24.220;2023-08-12T11:14:47;4.50;;;2.17;;
22648;SDS011;11491;41.942;24.220;2023-08-12T11:17:16;4.10;;;2.40;;
22648;SDS011;11491;41.942;24.220;2023-08-12T11:19:43;3.28;;;2.20;;
22648;SDS011;11491;41.942;24.220;2023-08-12T11:22:10;3.25;;;2.22;;
22648;SDS011;11491;41.942;24.220;2023-08-12T11:24:39;2.50;;;1.70;;
22648;SDS011;11491;41.942;24.220;2023-08-12T11:27:08;3.30;;;2.10;;
22648;SDS011;11491;41.942;24.220;2023-08-12T11:29:37;3.35;;;1.92;;
22648;SDS011;11491;41.942;24.220;2023-08-12T11:32:05;4.18;;;1.70;;
22648;SDS011;11491;41.942;24.220;2023-08-12T11:34:33;2.70;;;1.80;;
22648;SDS011;11491;41.942;24.220;2023-08-12T11:37:00;4.20;;;2.20;;
22648;SDS011;11491;41.942;24.220;2023-08-12T11:39:29;3.50;;;2.10;;
22648;SDS011;11491;41.942;24.220;2023-08-12T11:41:56;2.20;;;2.00;;
22648;SDS011;11491;41.942;24.220;2023-08-12T11:44:23;7.20;;;2.20;;
22648;SDS011;11491;41.942;24.220;2023-08-12T11:46:50;5.35;;;2.13;;
22648;SDS011;11491;41.942;24.220;2023-08-12T11:49:17;3.03;;;1.83;;
22648;SDS011;11491;41.942;24.220;2023-08-12T11:51:46;8.38;;;7.30;;
22648;SDS011;11491;41.942;24.220;2023-08-12T11:54:15;5.43;;;3.38;;
22648;SDS011;11491;41.942;24.220;2023-08-12T11:56:42;3.33;;;2.75;;
22648;SDS011;11491;41.942;24.220;2023-08-12T11:59:09;5.40;;;2.28;;
22648;SDS011;11491;41.942;24.220;2023-08-12T12:01:36;5.53;;;2.60;;
22648;SDS011;11491;41.942;24.220;2023-08-12T12:04:03;2.55;;;2.00;;
22648;SDS011;11491;41.942;24.220;2023-08-12T12:06:31;2.13;;;1.80;;
22648;SDS011;11491;41.942;24.220;2023-08-12T12:09:03;2.30;;;1.70;;
22648;SDS011;11491;41.942;24.220;2023-08-12T12:11:31;3.25;;;1.85;;
22648;SDS011;11491;41.942;24.220;2023-08-12T12:13:59;5.65;;;1.88;;
22648;SDS011;11491;41.942;24.220;2023-08-12T12:16:36;2.83;;;1.70;;
22648;SDS011;11491;41.942;24.220;2023-08-12T12:19:04;4.07;;;2.53;;
22648;SDS011;11491;41.942;24.220;2023-08-12T12:21:38;3.40;;;2.40;;
22648;SDS011;11491;41.942;24.220;2023-08-12T12:24:07;3.30;;;2.42;;
22648;SDS011;11491;41.942;24.220;2023-08-12T12:26:34;3.10;;;2.00;;
22648;SDS011;11491;41.942;24.220;2023-08-12T12:29:02;3.38;;;1.80;;
22648;SDS011;11491;41.942;24.220;2023-08-12T12:31:31;2.40;;;2.20;;
22648;SDS011;11491;41.942;24.220;2023-08-12T12:33:58;3.05;;;1.95;;
22648;SDS011;11491;41.942;24.220;2023-08-12T12:36:25;3.00;;;1.80;;
22648;SDS011;11491;41.942;24.220;2023-08-12T12:38:52;2.22;;;1.77;;
22648;SDS011;11491;41.942;24.220;2023-08-12T12:41:20;2.22;;;1.80;;
22648;SDS011;11491;41.942;24.220;2023-08-12T12:43:47;2.30;;;1.98;;
22648;SDS011;11491;41.942;24.220;2023-08-12T12:46:14;2.55;;;2.10;;
22648;SDS011;11491;41.942;24.220;2023-08-12T12:48:41;4.93;;;2.08;;
22648;SDS011;11491;41.942;24.220;2023-08-12T12:51:08;2.45;;;2.10;;
22648;SDS011;11491;41.942;24.220;2023-08-12T12:53:35;4.57;;;2.08;;
22648;SDS011;11491;41.942;24.220;2023-08-12T12:56:02;3.65;;;1.88;;
22648;SDS011;11491;41.942;24.220;2023-08-12T12:58:30;4.63;;;1.95;;
22648;SDS011;11491;41.942;24.220;2023-08-12T13:00:58;3.80;;;2.20;;
22648;SDS011;11491;41.942;24.220;2023-08-12T13:03:25;5.20;;;1.92;;
22648;SDS011;11491;41.942;24.220;2023-08-12T13:05:51;2.80;;;1.90;;
22648;SDS011;11491;41.942;24.220;2023-08-12T13:08:18;2.00;;;1.80;;
22648;SDS011;11491;41.942;24.220;2023-08-12T13:10:45;2.72;;;2.10;;
22648;SDS011;11491;41.942;24.220;2023-08-12T13:13:12;2.78;;;1.95;;
22648;SDS011;11491;41.942;24.220;2023-08-12T13:15:42;2.92;;;2.22;;
22648;SDS011;11491;41.942;24.220;2023-08-12T13:18:09;3.60;;;2.40;;
22648;SDS011;11491;41.942;24.220;2023-08-12T13:20:36;4.18;;;2.33;;
22648;SDS011;11491;41.942;24.220;2023-08-12T13:23:04;2.67;;;2.45;;
22648;SDS011;11491;41.942;24.220;2023-08-12T13:25:31;3.58;;;1.98;;
22648;SDS011;11491;41.942;24.220;2023-08-12T13:27:59;4.20;;;2.53;;
22648;SDS011;11491;41.942;24.220;2023-08-12T13:30:27;2.30;;;2.00;;
22648;SDS011;11491;41.942;24.220;2023-08-12T13:32:55;2.67;;;2.00;;
22648;SDS011;11491;41.942;24.220;2023-08-12T13:35:23;3.70;;;2.47;;
22648;SDS011;11491;41.942;24.220;2023-08-12T13:37:50;14.30;;;3.30;;
22648;SDS011;11491;41.942;24.220;2023-08-12T13:40:17;10.90;;;2.58;;
22648;SDS011;11491;41.942;24.220;2023-08-12T13:42:44;9.50;;;2.85;;
22648;SDS011;11491;41.942;24.220;2023-08-12T13:45:12;3.97;;;2.22;;
22648;SDS011;11491;41.942;24.220;2023-08-12T13:47:39;3.25;;;2.70;;
22648;SDS011;11491;41.942;24.220;2023-08-12T13:50:08;3.60;;;2.25;;
22648;SDS011;11491;41.942;24.220;2023-08-12T13:52:35;2.25;;;1.92;;
22648;SDS011;11491;41.942;24.220;2023-08-12T13:55:02;2.45;;;2.08;;
22648;SDS011;11491;41.942;24.220;2023-08-12T13:57:29;2.63;;;1.60;;
22648;SDS011;11491;41.942;24.220;2023-08-12T13:59:56;6.15;;;2.33;;
22648;SDS011;11491;41.942;24.220;2023-08-12T14:02:23;3.83;;;2.00;;
22648;SDS011;11491;41.942;24.220;2023-08-12T14:04:50;2.70;;;2.15;;
22648;SDS011;11491;41.942;24.220;2023-08-12T14:07:18;3.38;;;2.33;;
22648;SDS011;11491;41.942;24.220;2023-08-12T14:09:46;4.00;;;2.10;;
22648;SDS011;11491;41.942;24.220;2023-08-12T14:12:13;3.70;;;2.17;;
22648;SDS011;11491;41.942;24.220;2023-08-12T14:14:40;4.40;;;3.33;;
22648;SDS011;11491;41.942;24.220;2023-08-12T14:17:07;5.10;;;3.08;;
22648;SDS011;11491;41.942;24.220;2023-08-12T14:19:38;5.57;;;2.47;;
22648;SDS011;11491;41.942;24.220;2023-08-12T14:22:04;8.13;;;2.70;;
22648;SDS011;11491;41.942;24.220;2023-08-12T14:24:33;4.38;;;2.50;;
22648;SDS011;11491;41.942;24.220;2023-08-12T14:26:59;6.45;;;3.00;;
22648;SDS011;11491;41.942;24.220;2023-08-12T14:29:26;4.43;;;2.63;;
22648;SDS011;11491;41.942;24.220;2023-08-12T14:31:53;3.88;;;2.55;;
22648;SDS011;11491;41.942;24.220;2023-08-12T14:34:19;3.63;;;2.22;;
22648;SDS011;11491;41.942;24.220;2023-08-12T14:36:46;3.88;;;2.58;;
22648;SDS011;11491;41.942;24.220;2023-08-12T14:39:13;2.55;;;2.30;;
22648;SDS011;11491;41.942;24.220;2023-08-12T14:41:41;2.78;;;2.08;;
22648;SDS011;11491;41.942;24.220;2023-08-12T14:44:08;4.13;;;2.17;;
22648;SDS011;11491;41.942;24.220;2023-08-12T14:46:34;3.67;;;2.40;;
22648;SDS011;11491;41.942;24.220;2023-08-12T14:49:01;3.65;;;2.60;;
22648;SDS011;11491;41.942;24.220;2023-08-12T14:51:29;3.60;;;3.03;;
22648;SDS011;11491;41.942;24.220;2023-08-12T14:53:56;9.15;;;5.97;;
22648;SDS011;11491;41.942;24.220;2023-08-12T14:56:22;6.57;;;3.20;;
22648;SDS011;11491;41.942;24.220;2023-08-12T14:58:50;5.80;;;4.00;;
22648;SDS011;11491;41.942;24.220;2023-08-12T15:01:17;8.10;;;2.88;;
22648;SDS011;11491;41.942;24.220;2023-08-12T15:03:44;9.10;;;4.25;;
22648;SDS011;11491;41.942;24.220;2023-08-12T15:06:11;7.53;;;4.30;;
22648;SDS011;11491;41.942;24.220;2023-08-12T15:08:38;4.15;;;3.75;;
22648;SDS011;11491;41.942;24.220;2023-08-12T15:11:05;5.43;;;3.60;;
22648;SDS011;11491;41.942;24.220;2023-08-12T15:13:32;5.10;;;3.78;;
22648;SDS011;11491;41.942;24.220;2023-08-12T15:16:00;4.57;;;3.90;;
22648;SDS011;11491;41.942;24.220;2023-08-12T15:18:27;6.85;;;4.40;;
22648;SDS011;11491;41.942;24.220;2023-08-12T15:20:54;4.35;;;3.92;;
22648;SDS011;11491;41.942;24.220;2023-08-12T15:23:20;5.00;;;4.15;;
22648;SDS011;11491;41.942;24.220;2023-08-12T15:25:47;6.03;;;4.20;;
22648;SDS011;11491;41.942;24.220;2023-08-12T15:28:14;6.43;;;4.20;;
22648;SDS011;11491;41.942;24.220;2023-08-12T15:30:41;7.07;;;4.35;;
22648;SDS011;11491;41.942;24.220;2023-08-12T15:33:10;4.75;;;4.32;;
22648;SDS011;11491;41.942;24.220;2023-08-12T15:35:37;4.32;;;3.92;;
22648;SDS011;11491;41.942;24.220;2023-08-12T15:38:03;5.28;;;3.22;;
22648;SDS011;11491;41.942;24.220;2023-08-12T15:40:30;4.47;;;3.55;;
22648;SDS011;11491;41.942;24.220;2023-08-12T15:42:57;6.53;;;5.60;;
22648;SDS011;11491;41.942;24.220;2023-08-12T15:45:24;5.25;;;3.97;;
22648;SDS011;11491;41.942;24.220;2023-08-12T15:47:50;6.10;;;4.22;;
22648;SDS011;11491;41.942;24.220;2023-08-12T15:50:20;6.78;;;4.80;;
22648;SDS011;11491;41.942;24.220;2023-08-12T15:52:47;6.13;;;4.10;;
22648;SDS011;11491;41.942;24.220;2023-08-12T15:55:14;6.80;;;4.18;;
22648;SDS011;11491;41.942;24.220;2023-08-12T15:57:40;5.85;;;4.43;;
22648;SDS011;11491;41.942;24.220;2023-08-12T16:00:08;4.70;;;3.65;;
22648;SDS011;11491;41.942;24.220;2023-08-12T16:02:36;5.07;;;3.03;;
22648;SDS011;11491;41.942;24.220;2023-08-12T16:05:02;4.35;;;2.80;;
22648;SDS011;11491;41.942;24.220;2023-08-12T16:07:32;4.85;;;2.90;;
22648;SDS011;11491;41.942;24.220;2023-08-12T16:09:59;8.02;;;3.72;;
22648;SDS011;11491;41.942;24.220;2023-08-12T16:12:26;6.50;;;3.70;;
22648;SDS011;11491;41.942;24.220;2023-08-12T16:14:52;4.38;;;3.65;;
22648;SDS011;11491;41.942;24.220;2023-08-12T16:17:19;4.15;;;3.35;;
22648;SDS011;11491;41.942;24.220;2023-08-12T16:19:46;8.07;;;4.05;;
22648;SDS011;11491;41.942;24.220;2023-08-12T16:22:12;4.70;;;3.72;;
22648;SDS011;11491;41.942;24.220;2023-08-12T16:24:41;5.10;;;4.38;;
22648;SDS011;11491;41.942;24.220;2023-08-12T16:27:07;5.60;;;3.20;;
22648;SDS011;11491;41.942;24.220;2023-08-12T16:29:34;3.40;;;3.10;;
22648;SDS011;11491;41.942;24.220;2023-08-12T16:32:01;7.43;;;3.78;;